Time;durP1;ratioP1;P1;durP2;ratioP2;P2;SDS_P1;SDS_P2;PMS_P1;PMS_P2;Temp;Humidity;BMP_temperature;BMP_pressure;BME280_temperature;BME280_humidity;BME280_pressure;Samples;Min_cycle;Max_cycle;Signal;HPM_P1;HPM_P2
2022/01/01 00:00:50;;;;;;;6.15;4.63;;;;;;;13.55;71.06;102369.81;5016726;28;20021;-82
2022/01/01 00:03:16;;;;;;;4.65;3.90;;;;;;;13.55;71.13;102383.13;5017111;28;20120;-81
2022/01/01 00:05:42;;;;;;;4.93;4.63;;;;;;;13.65;70.90;102375.94;5017276;28;20105;-80
2022/01/01 00:08:11;;;;;;;4.95;3.95;;;;;;;13.63;70.78;102377.72;5016728;28;20033;-80
2022/01/01 00:10:37;;;;;;;10.15;4.20;;;;;;;13.66;70.88;102373.25;5016405;28;20043;-80
2022/01/01 00:13:03;;;;;;;5.13;4.82;;;;;;;13.65;71.04;102366.16;5016409;28;20034;-80
2022/01/01 00:15:29;;;;;;;9.23;7.53;;;;;;;13.68;71.00;102367.91;5016444;28;20038;-81
2022/01/01 00:17:57;;;;;;;3.22;2.92;;;;;;;13.70;70.87;102359.00;5016132;28;20034;-80
2022/01/01 00:20:23;;;;;;;0.80;0.80;;;;;;;13.72;70.79;102358.97;5016997;28;20072;-80
2022/01/01 00:22:50;;;;;;;4.47;4.22;;;;;;;13.71;70.79;102359.91;5016579;28;20053;-81
2022/01/01 00:25:16;;;;;;;8.23;4.55;;;;;;;13.71;70.89;102349.25;5016309;28;20065;-81
2022/01/01 00:27:42;;;;;;;2.72;2.63;;;;;;;13.83;70.15;102351.81;5016398;28;20034;-81
2022/01/01 00:30:09;;;;;;;5.32;3.75;;;;;;;13.93;70.26;102355.25;5016056;28;20048;-81
2022/01/01 00:32:37;;;;;;;3.30;1.63;;;;;;;13.94;70.45;102356.13;5017448;28;20061;-81
2022/01/01 00:35:04;;;;;;;2.33;2.13;;;;;;;13.88;70.45;102347.31;5017245;28;20022;-80
2022/01/01 00:37:31;;;;;;;1.13;1.10;;;;;;;13.96;70.50;102344.56;5016881;28;20521;-81
2022/01/01 00:39:57;;;;;;;3.45;1.83;;;;;;;13.93;70.43;102351.69;5015895;28;20034;-82
2022/01/01 00:42:24;;;;;;;17.25;7.05;;;;;;;13.97;70.57;102354.34;5015500;28;20109;-81
2022/01/01 00:44:51;;;;;;;2.92;2.58;;;;;;;14.00;70.28;102342.75;5015269;28;20061;-81
2022/01/01 00:47:17;;;;;;;6.07;4.75;;;;;;;13.95;70.85;102342.78;5015557;28;20075;-81
2022/01/01 00:49:43;;;;;;;1.23;1.17;;;;;;;13.98;70.29;102340.13;5015746;28;20100;-81
2022/01/01 00:52:10;;;;;;;1.88;1.77;;;;;;;14.02;70.42;102343.63;5016630;28;20105;-81
2022/01/01 00:54:36;;;;;;;2.45;2.35;;;;;;;14.02;70.68;102340.97;5015060;28;20048;-81
2022/01/01 00:57:03;;;;;;;7.15;3.42;;;;;;;14.02;70.47;102343.63;5015938;28;20109;-81
2022/01/01 00:59:30;;;;;;;1.75;1.58;;;;;;;14.04;70.66;102344.47;5014302;28;20037;-81
2022/01/01 01:01:58;;;;;;;2.90;2.72;;;;;;;14.02;70.62;102346.31;5015984;28;20021;-82
2022/01/01 01:04:25;;;;;;;2.22;2.13;;;;;;;14.06;70.37;102350.69;5016241;28;20053;-81
2022/01/01 01:06:51;;;;;;;2.28;2.15;;;;;;;14.04;70.41;102363.13;5015835;28;20053;-81
2022/01/01 01:09:17;;;;;;;2.05;1.95;;;;;;;14.01;70.34;102357.84;5015475;28;20041;-81
2022/01/01 01:11:47;;;;;;;1.83;1.73;;;;;;;13.95;70.50;102373.91;5016134;28;20038;-82
2022/01/01 01:14:20;;;;;;;1.27;1.25;;;;;;;13.91;70.03;102371.25;5015004;28;20436;-81
2022/01/01 01:16:48;;;;;;;2.63;2.38;;;;;;;13.80;70.72;102377.59;5015269;28;20057;-81
2022/01/01 01:19:14;;;;;;;1.65;1.55;;;;;;;13.86;70.44;102375.75;5015367;28;20022;-81
2022/01/01 01:21:41;;;;;;;0.77;0.77;;;;;;;13.91;70.41;102379.25;5015419;28;20037;-81
2022/01/01 01:24:07;;;;;;;4.85;3.40;;;;;;;13.82;71.60;102379.34;5015731;28;20083;-81
2022/01/01 01:26:33;;;;;;;1.00;1.00;;;;;;;13.92;71.43;102382.81;5015129;28;20026;-81
2022/01/01 01:29:02;;;;;;;2.88;0.90;;;;;;;13.99;71.34;102380.97;5025467;28;20543;-81
2022/01/01 01:31:29;;;;;;;3.92;1.73;;;;;;;14.06;71.52;102372.00;5035189;28;20038;-81
2022/01/01 01:33:56;;;;;;;2.20;2.05;;;;;;;14.03;71.98;102388.00;5035798;28;20033;-81
2022/01/01 01:36:22;;;;;;;0.73;0.73;;;;;;;14.11;71.97;102380.84;5035501;28;20098;-81
2022/01/01 01:38:48;;;;;;;0.68;0.68;;;;;;;14.20;71.70;102375.41;5034581;28;20440;-80
2022/01/01 01:41:15;;;;;;;1.88;1.77;;;;;;;14.17;72.10;102375.44;5035379;28;20055;-81
2022/01/01 01:43:41;;;;;;;0.47;0.47;;;;;;;14.31;71.60;102383.28;5034678;28;20029;-81
2022/01/01 01:46:12;;;;;;;0.47;0.47;;;;;;;14.42;71.36;102383.19;5035479;28;20033;-81
2022/01/01 01:48:39;;;;;;;1.00;1.00;;;;;;;14.48;71.20;102376.88;5034765;28;20032;-81
2022/01/01 01:51:06;;;;;;;1.30;1.10;;;;;;;14.51;71.03;102380.38;5034305;28;20120;-81
2022/01/01 01:53:33;;;;;;;3.00;2.70;;;;;;;14.53;70.88;102378.59;5034668;28;20032;-82
2022/01/01 01:56:00;;;;;;;1.75;1.65;;;;;;;14.59;70.90;102376.75;5034343;28;20030;-81
2022/01/01 01:58:30;;;;;;;0.17;0.17;;;;;;;14.64;70.70;102374.91;5035088;28;20039;-81
2022/01/01 02:01:20;;;;;;;0.35;0.35;;;;;;;14.76;70.35;102374.78;5035072;28;20140;-81
2022/01/01 02:03:42;;;;;;;0.70;0.68;;;;;;;14.76;70.35;102373.91;5034739;28;20045;-81
2022/01/01 02:06:09;;;;;;;0.22;0.22;;;;;;;14.78;70.17;102377.44;5034491;28;20156;-81
2022/01/01 02:08:35;;;;;;;0.52;0.52;;;;;;;14.76;70.22;102373.91;5034720;28;20389;-81
2022/01/01 02:11:03;;;;;;;0.25;0.25;;;;;;;14.84;69.89;102372.00;5033762;28;20048;-81
2022/01/01 02:13:34;;;;;;;0.77;0.77;;;;;;;14.83;69.89;102368.47;5034772;28;20049;-81
2022/01/01 02:16:27;;;;;;;0.10;0.10;;;;;;;14.91;69.74;102357.69;5034693;28;20111;-82
2022/01/01 02:18:54;;;;;;;1.50;1.42;;;;;;;14.94;69.54;102362.09;5033992;28;20029;-81
2022/01/01 02:21:21;;;;;;;1.73;0.98;;;;;;;14.98;69.81;102353.16;5034735;28;20469;-81
2022/01/01 02:23:56;;;;;;;0.10;0.10;;;;;;;15.05;69.49;102354.81;5034737;28;20037;-81
2022/01/01 02:26:30;;;;;;;2.95;2.75;;;;;;;15.02;69.47;102354.88;5033440;28;20028;-82
2022/01/01 02:28:58;;;;;;;0.10;0.10;;;;;;;14.96;69.23;102346.94;5034578;28;20032;-81
2022/01/01 02:31:24;;;;;;;0.73;0.73;;;;;;;14.98;69.50;102343.34;5034257;28;20036;-79
2022/01/01 02:33:51;;;;;;;0.08;0.08;;;;;;;14.99;69.21;102339.78;5033965;28;20030;-82
2022/01/01 02:36:29;;;;;;;0.15;0.15;;;;;;;15.08;69.25;102353.88;5034520;28;20029;-81
2022/01/01 02:38:55;;;;;;;1.17;1.08;;;;;;;15.04;69.25;102353.03;5034667;28;20055;-82
2022/01/01 02:41:21;;;;;;;0.20;0.20;;;;;;;15.06;69.11;102351.25;5034636;28;20377;-81
2022/01/01 02:43:48;;;;;;;0.38;0.38;;;;;;;15.00;69.02;102354.91;5032978;28;20029;-81
2022/01/01 02:46:14;;;;;;;3.20;0.63;;;;;;;15.07;69.21;102363.69;5034305;28;20109;-82
2022/01/01 02:48:44;;;;;;;0.82;0.32;;;;;;;15.07;69.16;102369.03;5034443;28;20021;-82
2022/01/01 02:51:10;;;;;;;0.50;0.47;;;;;;;15.09;69.00;102361.91;5034348;28;20468;-81
2022/01/01 02:53:36;;;;;;;0.50;0.50;;;;;;;15.06;68.98;102366.38;5033850;28;20040;-81
2022/01/01 02:56:02;;;;;;;0.20;0.20;;;;;;;15.05;69.02;102370.81;5033851;28;20029;-82
2022/01/01 02:58:29;;;;;;;0.20;0.20;;;;;;;15.00;69.31;102357.56;5033103;28;20022;-81
2022/01/01 03:00:55;;;;;;;0.77;0.77;;;;;;;15.06;68.66;102366.38;5033615;28;20053;-81
2022/01/01 03:03:21;;;;;;;0.20;0.20;;;;;;;15.07;68.89;102363.69;5033973;28;20531;-81
2022/01/01 03:05:47;;;;;;;1.00;0.88;;;;;;;15.04;68.75;102363.72;5034251;28;20461;-82
2022/01/01 03:08:13;;;;;;;0.30;0.30;;;;;;;14.92;69.21;102366.59;5033823;28;20034;-82
2022/01/01 03:10:40;;;;;;;0.68;0.68;;;;;;;14.96;69.00;102360.28;5033735;28;20504;-81
2022/01/01 03:13:06;;;;;;;0.57;0.57;;;;;;;15.00;68.98;102360.25;5033540;28;20489;-81
2022/01/01 03:15:32;;;;;;;0.85;0.85;;;;;;;14.97;68.94;102356.72;5034275;28;20465;-82
2022/01/01 03:17:58;;;;;;;0.45;0.45;;;;;;;14.93;69.04;102363.00;5035905;28;20043;-82
2022/01/01 03:20:25;;;;;;;1.35;1.27;;;;;;;14.91;69.05;102351.47;5037805;28;20465;-82
2022/01/01 03:22:51;;;;;;;0.90;0.90;;;;;;;14.97;68.78;102344.25;5037734;28;20060;-83
2022/01/01 03:25:17;;;;;;;4.90;0.70;;;;;;;14.95;69.11;102356.72;5037321;28;20026;-82
2022/01/01 03:27:44;;;;;;;0.38;0.38;;;;;;;14.86;69.36;102348.88;5036325;28;20029;-82
2022/01/01 03:30:11;;;;;;;0.90;0.90;;;;;;;14.92;68.96;102339.91;5036631;28;20037;-81
2022/01/01 03:32:37;;;;;;;0.10;0.10;;;;;;;14.90;69.05;102341.69;5037296;28;20382;-81
2022/01/01 03:35:04;;;;;;;0.28;0.28;;;;;;;14.91;68.94;102338.13;5037772;28;20029;-81
2022/01/01 03:37:30;;;;;;;0.35;0.35;;;;;;;14.84;69.24;102338.22;5038284;28;20053;-81
2022/01/01 03:39:56;;;;;;;0.10;0.10;;;;;;;14.83;69.27;102341.78;5036745;28;20038;-82
2022/01/01 03:42:22;;;;;;;20.73;1.33;;;;;;;14.72;69.47;102341.91;5036614;28;20032;-82
2022/01/01 03:44:48;;;;;;;0.93;0.93;;;;;;;14.79;69.25;102342.75;5036891;28;20041;-81
2022/01/01 03:47:14;;;;;;;0.20;0.20;;;;;;;14.76;69.12;102337.44;5037457;28;20033;-81
2022/01/01 03:49:41;;;;;;;0.65;0.65;;;;;;;14.66;69.48;102335.81;5036903;28;20025;-81
2022/01/01 03:52:07;;;;;;;0.65;0.65;;;;;;;14.71;69.27;102340.16;5037160;28;20040;-82
2022/01/01 03:54:34;;;;;;;0.30;0.30;;;;;;;14.72;69.23;102346.38;5036866;28;20469;-81
2022/01/01 03:57:01;;;;;;;2.40;1.52;;;;;;;14.72;68.89;102341.06;5036561;28;20112;-81
2022/01/01 03:59:27;;;;;;;2.80;0.98;;;;;;;14.71;69.06;102350.81;5035012;28;20030;-81
2022/01/01 04:01:55;;;;;;;1.50;1.40;;;;;;;14.67;69.03;102349.09;5037163;28;20029;-81
2022/01/01 04:04:23;;;;;;;0.20;0.20;;;;;;;14.56;69.43;102349.19;5036354;28;20494;-81
2022/01/01 04:06:49;;;;;;;0.22;0.22;;;;;;;14.56;68.97;102346.53;5037102;28;20026;-81
2022/01/01 04:09:16;;;;;;;0.25;0.25;;;;;;;14.53;69.22;102343.91;5036531;28;20037;-81
2022/01/01 04:11:42;;;;;;;0.68;0.68;;;;;;;14.46;69.22;102346.69;5036808;28;20034;-81
2022/01/01 04:14:15;;;;;;;0.75;0.50;;;;;;;14.41;68.81;102344.06;5036464;28;20361;-82
2022/01/01 04:16:41;;;;;;;1.05;1.02;;;;;;;14.35;69.32;102347.69;5036021;28;20030;-81
2022/01/01 04:19:08;;;;;;;0.10;0.10;;;;;;;14.30;69.24;102341.53;5036493;28;20045;-80
2022/01/01 04:21:35;;;;;;;0.88;0.88;;;;;;;14.22;69.28;102354.94;5036848;28;20029;-81
2022/01/01 04:24:02;;;;;;;0.77;0.77;;;;;;;14.23;69.57;102359.38;5036139;28;20021;-81
2022/01/01 04:26:28;;;;;;;0.15;0.15;;;;;;;14.27;69.32;102352.25;5036562;28;20021;-80
2022/01/01 04:28:54;;;;;;;0.30;0.30;;;;;;;14.28;69.47;102355.78;5036387;28;20557;-82
2022/01/01 04:31:21;;;;;;;0.10;0.10;;;;;;;14.33;69.43;102353.94;5035220;28;20033;-81
2022/01/01 04:33:47;;;;;;;1.77;1.50;;;;;;;14.34;69.55;102345.03;5036024;28;20066;-82
2022/01/01 04:36:13;;;;;;;0.75;0.75;;;;;;;14.37;69.28;102353.03;5036303;28;20487;-80
2022/01/01 04:38:42;;;;;;;3.80;0.50;;;;;;;14.38;69.34;102360.09;5035947;28;20037;-81
2022/01/01 04:41:16;;;;;;;0.55;0.55;;;;;;;14.49;69.43;102357.31;5036277;28;20080;-81
2022/01/01 04:43:44;;;;;;;0.45;0.45;;;;;;;14.47;69.46;102357.34;5036336;28;20033;-81
2022/01/01 04:46:10;;;;;;;0.77;0.77;;;;;;;14.40;69.57;102364.53;5035320;28;20472;-81
2022/01/01 04:48:37;;;;;;;0.40;0.40;;;;;;;14.45;69.88;102369.78;5034800;28;20496;-81
2022/01/01 04:51:06;;;;;;;2.90;1.35;;;;;;;14.50;69.37;102375.94;5035715;28;20504;-82
2022/01/01 04:53:34;;;;;;;1.67;1.55;;;;;;;14.49;69.62;102371.53;5036013;28;20384;-81
2022/01/01 04:56:05;;;;;;;0.10;0.10;;;;;;;14.52;69.52;102370.63;5035916;28;20436;-81
2022/01/01 04:58:31;;;;;;;0.10;0.10;;;;;;;14.56;69.48;102373.22;5034706;28;20030;-80
2022/01/01 05:00:57;;;;;;;0.20;0.20;;;;;;;14.64;69.32;102372.25;5035972;28;20029;-81
2022/01/01 05:03:23;;;;;;;0.10;0.10;;;;;;;14.67;69.19;102373.13;5035392;28;20026;-81
2022/01/01 05:05:50;;;;;;;0.30;0.30;;;;;;;14.63;69.15;102370.47;5035906;28;20038;-81
2022/01/01 05:08:16;;;;;;;1.40;1.40;;;;;;;14.72;68.97;102367.72;5035675;28;20033;-81
2022/01/01 05:10:42;;;;;;;0.68;0.68;;;;;;;14.71;68.90;102376.63;5034787;28;20416;-81
2022/01/01 05:13:08;;;;;;;2.33;1.80;;;;;;;14.76;68.87;102369.44;5035568;28;20040;-81
2022/01/01 05:15:35;;;;;;;0.10;0.10;;;;;;;14.78;68.66;102375.66;5035617;28;20025;-81
2022/01/01 05:18:01;;;;;;;0.10;0.10;;;;;;;14.80;68.70;102372.97;5035454;28;20025;-80
2022/01/01 05:20:27;;;;;;;0.10;0.10;;;;;;;14.78;68.74;102361.41;5035142;28;20026;-80
2022/01/01 05:22:53;;;;;;;0.15;0.15;;;;;;;14.81;68.77;102361.38;5035141;28;20113;-81
2022/01/01 05:25:19;;;;;;;0.52;0.52;;;;;;;14.83;68.76;102362.25;5035175;28;20033;-81
2022/01/01 05:27:45;;;;;;;0.57;0.57;;;;;;;14.84;68.60;102361.34;5035625;28;20117;-81
2022/01/01 05:30:12;;;;;;;1.42;1.25;;;;;;;14.81;68.55;102362.25;5035552;28;20053;-81
2022/01/01 05:32:38;;;;;;;0.10;0.10;;;;;;;14.79;68.66;102364.09;5035382;28;20052;-81
2022/01/01 05:35:05;;;;;;;0.05;0.05;;;;;;;14.77;68.29;102349.88;5035188;28;20068;-82
2022/01/01 05:37:31;;;;;;;0.10;0.10;;;;;;;14.77;68.06;102349.88;5034555;28;20079;-82
2022/01/01 05:39:57;;;;;;;0.10;0.10;;;;;;;14.69;68.40;102341.06;5034579;28;20149;-82
2022/01/01 05:42:23;;;;;;;0.10;0.10;;;;;;;14.74;68.30;102338.34;5035433;28;20026;-81
2022/01/01 05:44:49;;;;;;;0.17;0.17;;;;;;;14.60;68.35;102336.72;5035382;28;20131;-80
2022/01/01 05:47:16;;;;;;;0.10;0.10;;;;;;;14.57;68.34;102337.63;5036054;28;20025;-81
2022/01/01 05:49:42;;;;;;;0.15;0.15;;;;;;;14.60;68.25;102330.50;5034902;28;20041;-81
2022/01/01 05:52:08;;;;;;;0.17;0.13;;;;;;;14.56;68.15;102319.88;5034729;28;20049;-82
2022/01/01 05:54:34;;;;;;;0.10;0.10;;;;;;;14.54;68.26;102321.69;5035579;28;20464;-81
2022/01/01 05:57:01;;;;;;;0.43;0.40;;;;;;;14.56;68.16;102324.31;5036128;28;20034;-81
2022/01/01 05:59:28;;;;;;;0.10;0.10;;;;;;;14.54;68.10;102327.03;5035806;28;20606;-81
2022/01/01 06:01:54;;;;;;;0.10;0.10;;;;;;;14.49;68.38;102327.97;5036106;28;20450;-82
2022/01/01 06:04:20;;;;;;;0.90;0.90;;;;;;;14.49;68.48;102323.53;5034219;28;20021;-81
2022/01/01 06:06:47;;;;;;;0.20;0.20;;;;;;;14.46;68.46;102322.69;5035257;28;20113;-82
2022/01/01 06:09:13;;;;;;;0.65;0.65;;;;;;;14.38;68.54;102330.75;5034175;28;20488;-81
2022/01/01 06:11:39;;;;;;;1.45;1.00;;;;;;;14.28;68.99;102335.34;5034194;28;20476;-81
2022/01/01 06:14:05;;;;;;;1.10;1.10;;;;;;;14.23;69.07;102332.72;5033765;28;20061;-81
2022/01/01 06:16:32;;;;;;;0.10;0.10;;;;;;;14.31;68.71;102335.28;5033530;28;20025;-81
2022/01/01 06:18:58;;;;;;;0.10;0.10;;;;;;;14.31;69.03;102342.44;5033481;28;20099;-82
2022/01/01 06:21:24;;;;;;;0.30;0.30;;;;;;;14.39;68.91;102344.09;5034282;28;20037;-82
2022/01/01 06:23:50;;;;;;;1.17;1.08;;;;;;;14.37;69.03;102350.34;5034078;28;20066;-82
2022/01/01 06:26:16;;;;;;;0.20;0.20;;;;;;;14.48;68.94;102353.78;5034132;28;20417;-82
2022/01/01 06:28:43;;;;;;;0.10;0.10;;;;;;;14.53;68.71;102351.94;5033834;28;20075;-82
2022/01/01 06:31:09;;;;;;;0.20;0.20;;;;;;;14.63;68.45;102359.78;5033528;28;20052;-80
2022/01/01 06:33:35;;;;;;;0.30;0.30;;;;;;;14.66;68.47;102351.81;5034542;28;20430;-82
2022/01/01 06:36:01;;;;;;;0.75;0.75;;;;;;;14.65;68.40;102353.56;5033883;28;20022;-82
2022/01/01 06:38:28;;;;;;;0.45;0.45;;;;;;;14.74;68.23;102354.38;5034158;28;20029;-81
2022/01/01 06:40:54;;;;;;;0.50;0.50;;;;;;;14.72;68.14;102354.38;5033948;28;20477;-82
2022/01/01 06:43:23;;;;;;;0.15;0.15;;;;;;;14.79;68.09;102357.84;5034088;28;20496;-82
2022/01/01 06:45:50;;;;;;;0.10;0.10;;;;;;;14.78;67.92;102362.31;5033301;28;20055;-81
2022/01/01 06:48:16;;;;;;;0.10;0.10;;;;;;;14.85;67.97;102366.69;5034343;28;20127;-82
2022/01/01 06:50:42;;;;;;;0.20;0.20;;;;;;;14.86;67.86;102363.06;5034064;28;20043;-81
2022/01/01 06:53:10;;;;;;;0.15;0.15;;;;;;;14.85;67.59;102348.00;5036851;28;20037;-83
2022/01/01 06:55:36;;;;;;;0.25;0.17;;;;;;;14.87;67.63;102346.16;5038357;28;20120;-81
2022/01/01 06:58:03;;;;;;;1.45;1.30;;;;;;;14.79;67.64;102350.75;5036631;28;20036;-81
2022/01/01 07:00:29;;;;;;;0.43;0.43;;;;;;;14.79;67.62;102353.41;5019874;28;20463;-81
2022/01/01 07:02:55;;;;;;;0.10;0.10;;;;;;;14.80;67.94;102363.16;5038116;28;20072;-82
2022/01/01 07:05:21;;;;;;;0.40;0.40;;;;;;;14.83;67.86;102363.13;5037910;28;20083;-81
2022/01/01 07:07:47;;;;;;;0.10;0.10;;;;;;;14.90;67.74;102353.25;5037865;28;20033;-82
2022/01/01 07:10:13;;;;;;;0.55;0.55;;;;;;;14.88;67.55;102358.63;5037797;28;20098;-82
2022/01/01 07:12:40;;;;;;;0.22;0.22;;;;;;;14.90;67.43;102355.91;5037098;28;20486;-82
2022/01/01 07:15:08;;;;;;;0.13;0.13;;;;;;;14.92;67.39;102354.13;5037638;28;20033;-82
2022/01/01 07:17:34;;;;;;;0.20;0.20;;;;;;;14.87;67.38;102361.31;5037947;28;20105;-81
2022/01/01 07:20:00;;;;;;;0.10;0.10;;;;;;;14.84;67.47;102366.66;5037797;28;20160;-81
2022/01/01 07:22:26;;;;;;;4.47;1.95;;;;;;;14.83;67.41;102359.59;5038025;28;20495;-80
2022/01/01 07:24:52;;;;;;;0.40;0.40;;;;;;;14.83;67.38;102360.47;5037563;28;20021;-81
2022/01/01 07:27:20;;;;;;;0.32;0.32;;;;;;;14.91;67.21;102367.50;5037157;28;20052;-81
2022/01/01 07:29:46;;;;;;;0.20;0.20;;;;;;;14.92;67.33;102370.13;5038118;28;20037;-82
2022/01/01 07:32:12;;;;;;;0.10;0.10;;;;;;;14.90;67.36;102365.72;5037450;28;20029;-82
2022/01/01 07:34:39;;;;;;;0.68;0.68;;;;;;;14.87;67.01;102367.50;5037309;28;20034;-82
2022/01/01 07:37:06;;;;;;;0.10;0.10;;;;;;;14.84;67.26;102367.56;5037398;28;20104;-81
2022/01/01 07:39:32;;;;;;;0.00;0.00;;;;;;;14.87;67.16;102383.53;5035543;28;20048;-82
2022/01/01 07:41:58;;;;;;;0.63;0.63;;;;;;;14.86;67.02;102381.75;5037347;28;20461;-82
2022/01/01 07:44:24;;;;;;;0.10;0.10;;;;;;;14.86;67.05;102370.22;5037487;28;20025;-81
2022/01/01 07:46:52;;;;;;;0.40;0.40;;;;;;;14.94;66.92;102373.66;5037061;28;20037;-82
2022/01/01 07:49:18;;;;;;;0.15;0.15;;;;;;;14.89;67.05;102380.84;5037034;28;20036;-81
2022/01/01 07:51:44;;;;;;;0.45;0.45;;;;;;;14.91;66.97;102376.38;5036702;28;20030;-82
2022/01/01 07:54:10;;;;;;;0.77;0.77;;;;;;;14.86;66.75;102370.22;5037203;28;20026;-82
2022/01/01 07:56:37;;;;;;;0.70;0.35;;;;;;;14.85;66.91;102380.00;5037014;28;20026;-82
2022/01/01 07:59:03;;;;;;;0.30;0.30;;;;;;;14.87;67.00;102377.31;5036930;28;20034;-82
2022/01/01 08:01:29;;;;;;;0.25;0.25;;;;;;;14.79;66.92;102374.75;5036859;28;20041;-81
2022/01/01 08:04:01;;;;;;;0.15;0.15;;;;;;;14.69;67.31;102368.66;5036100;28;20512;-82
2022/01/01 08:06:29;;;;;;;;;;;;;;;14.92;66.68;102366.59;5036999;28;20030;-82
2022/01/01 08:08:56;;;;;;;0.47;0.47;;;;;;;14.78;66.89;102374.75;5036646;28;20268;-82
2022/01/01 08:11:24;;;;;;;0.00;0.00;;;;;;;14.78;67.04;102370.31;5036454;28;20035;-82
2022/01/01 08:13:50;;;;;;;1.13;0.77;;;;;;;14.73;67.12;102369.50;5036875;28;20041;-82
2022/01/01 08:16:17;;;;;;;0.00;0.00;;;;;;;14.76;67.26;102371.25;5037165;28;20107;-82
2022/01/01 08:18:43;;;;;;;0.15;0.15;;;;;;;14.74;67.20;102376.56;5035833;28;20108;-81
2022/01/01 08:21:09;;;;;;;0.20;0.20;;;;;;;14.69;67.28;102367.75;5035483;28;20048;-82
2022/01/01 08:23:35;;;;;;;0.10;0.10;;;;;;;14.74;67.12;102386.38;5036720;28;20025;-82
2022/01/01 08:26:01;;;;;;;0.10;0.10;;;;;;;14.78;67.08;102373.00;5036516;28;20033;-82
2022/01/01 08:28:27;;;;;;;1.02;0.32;;;;;;;14.75;67.21;102373.00;5036295;28;20041;-81
2022/01/01 08:30:53;;;;;;;0.43;0.43;;;;;;;14.78;67.17;102383.66;5036268;28;20061;-82
2022/01/01 08:33:20;;;;;;;0.45;0.45;;;;;;;14.76;67.34;102380.13;5036085;28;20388;-81
2022/01/01 08:35:46;;;;;;;0.10;0.10;;;;;;;14.81;67.24;102378.28;5036295;28;20034;-82
2022/01/01 08:38:13;;;;;;;0.10;0.10;;;;;;;14.86;67.04;102380.88;5035965;28;20033;-82
2022/01/01 08:40:40;;;;;;;0.10;0.10;;;;;;;14.87;67.04;102372.84;5036179;28;20030;-82
2022/01/01 08:43:07;;;;;;;0.50;0.50;;;;;;;14.85;66.92;102369.34;5036390;28;20033;-82
2022/01/01 08:45:35;;;;;;;0.10;0.10;;;;;;;14.91;66.86;102367.50;5034349;28;20029;-81
2022/01/01 08:48:01;;;;;;;0.10;0.10;;;;;;;14.92;66.87;102363.91;5035684;28;20030;-82
2022/01/01 08:50:27;;;;;;;0.60;0.60;;;;;;;14.84;66.84;102353.31;5035155;28;20037;-81
2022/01/01 08:52:54;;;;;;;0.28;0.28;;;;;;;14.71;67.09;102345.50;5036246;28;20069;-82
2022/01/01 08:55:20;;;;;;;0.10;0.10;;;;;;;14.74;66.95;102354.38;5035819;28;20530;-82
2022/01/01 08:57:52;;;;;;;0.10;0.10;;;;;;;14.64;67.08;102353.56;5035132;28;20064;-82
2022/01/01 09:00:18;;;;;;;2.83;1.00;;;;;;;14.73;67.00;102358.84;5035483;28;20133;-81
2022/01/01 09:02:44;;;;;;;0.10;0.10;;;;;;;14.72;66.81;102352.59;5034899;28;20484;-82
2022/01/01 09:05:11;;;;;;;0.20;0.20;;;;;;;14.67;66.97;102340.25;5034275;28;20033;-82
2022/01/01 09:07:37;;;;;;;0.20;0.20;;;;;;;14.64;67.26;102350.91;5034708;28;20017;-82
2022/01/01 09:10:05;;;;;;;1.48;1.25;;;;;;;14.60;67.28;102347.38;5034851;28;20063;-82
2022/01/01 09:12:31;;;;;;;0.50;0.50;;;;;;;14.50;67.41;102354.63;5035490;28;20033;-82
2022/01/01 09:14:57;;;;;;;0.30;0.30;;;;;;;14.62;67.24;102352.72;5034232;28;20029;-82
2022/01/01 09:17:24;;;;;;;0.10;0.10;;;;;;;14.56;67.19;102351.88;5034590;28;20029;-82
2022/01/01 09:19:50;;;;;;;0.10;0.10;;;;;;;14.66;67.29;102347.34;5034864;28;20025;-81
2022/01/01 09:22:17;;;;;;;0.68;0.68;;;;;;;14.59;67.39;102339.41;5035322;28;20473;-82
2022/01/01 09:24:43;;;;;;;1.10;1.10;;;;;;;14.48;67.82;102348.44;5035626;28;20057;-82
2022/01/01 09:27:09;;;;;;;1.05;0.95;;;;;;;14.60;67.43;102341.19;5035335;28;20033;-81
2022/01/01 09:29:35;;;;;;;0.30;0.30;;;;;;;14.61;67.35;102332.28;5034660;28;20103;-82
2022/01/01 09:32:03;;;;;;;0.10;0.10;;;;;;;14.61;67.47;102337.63;5035396;28;20026;-82
2022/01/01 09:34:29;;;;;;;0.65;0.65;;;;;;;14.67;67.27;102342.91;5035199;28;20052;-81
2022/01/01 09:36:57;;;;;;;0.40;0.40;;;;;;;14.63;67.35;102335.78;5033913;28;20026;-82
2022/01/01 09:39:25;;;;;;;0.25;0.25;;;;;;;14.59;67.34;102312.72;5035277;28;20021;-82
2022/01/01 09:41:51;;;;;;;0.98;0.32;;;;;;;14.59;67.51;102310.06;5035140;28;20132;-81
2022/01/01 09:44:20;;;;;;;0.30;0.30;;;;;;;14.64;67.49;102294.88;5035054;28;20037;-81
2022/01/01 09:46:48;;;;;;;0.45;0.45;;;;;;;14.68;67.27;102299.31;5034281;28;20033;-82
2022/01/01 09:49:16;;;;;;;0.10;0.10;;;;;;;14.71;67.18;102292.13;5035065;28;20055;-82
2022/01/01 09:51:43;;;;;;;0.95;0.90;;;;;;;14.69;67.59;102285.97;5034962;28;20045;-81
2022/01/01 09:54:09;;;;;;;0.47;0.47;;;;;;;14.76;67.58;102292.06;5034880;28;20052;-81
2022/01/01 09:56:36;;;;;;;2.38;1.45;;;;;;;14.76;67.45;102294.75;5034840;28;20025;-81
2022/01/01 09:59:02;;;;;;;2.47;1.58;;;;;;;14.80;67.36;102304.47;5034261;28;20034;-81
2022/01/01 10:01:28;;;;;;;0.43;0.43;;;;;;;14.80;67.49;102299.13;5034155;28;20029;-81
2022/01/01 10:03:56;;;;;;;3.97;0.80;;;;;;;14.76;67.87;102293.88;5033991;28;20029;-82
2022/01/01 10:06:23;;;;;;;0.45;0.45;;;;;;;14.82;67.44;102294.66;5034054;28;20025;-81
2022/01/01 10:08:57;;;;;;;4.65;2.33;;;;;;;14.76;67.72;102300.06;5034510;28;20029;-81
2022/01/01 10:11:24;;;;;;;0.30;0.30;;;;;;;14.80;67.53;102304.47;5034143;28;20175;-82
2022/01/01 10:13:50;;;;;;;0.50;0.50;;;;;;;14.78;67.75;102308.06;5034166;28;20021;-81
2022/01/01 10:16:17;;;;;;;0.63;0.63;;;;;;;14.83;67.79;102316.91;5034849;28;20032;-81
2022/01/01 10:18:45;;;;;;;1.45;1.35;;;;;;;14.87;67.59;102315.94;5034413;28;20030;-81
2022/01/01 10:21:14;;;;;;;0.25;0.25;;;;;;;14.90;67.84;102309.69;5034613;28;20033;-82
2022/01/01 10:23:43;;;;;;;0.65;0.65;;;;;;;14.94;67.65;102308.72;5034696;28;20528;-82
2022/01/01 10:29:08;;;;;;;0.38;0.38;;;;;;;15.06;67.42;102308.53;5072739;28;20390;-81
2022/01/01 10:31:36;;;;;;;7.68;2.17;;;;;;;15.04;67.44;102305.91;5072044;28;20024;-82
2022/01/01 10:34:09;;;;;;;0.10;0.10;;;;;;;15.01;67.42;102300.59;5070882;28;20033;-82
2022/01/01 10:36:35;;;;;;;0.10;0.10;;;;;;;15.04;67.44;102302.31;5071934;28;20025;-82
2022/01/01 10:39:11;;;;;;;1.73;1.63;;;;;;;15.12;67.06;102303.09;5071635;28;20024;-82
2022/01/01 10:41:47;;;;;;;1.55;1.42;;;;;;;15.13;67.11;102307.53;5071816;28;20025;-81
2022/01/01 10:44:13;;;;;;;1.15;0.85;;;;;;;15.13;67.28;102304.88;5071561;28;20033;-82
2022/01/01 10:46:41;;;;;;;1.90;1.75;;;;;;;15.22;67.20;102313.66;5071824;28;20025;-81
2022/01/01 10:49:33;;;;;;;0.47;0.47;;;;;;;15.32;66.99;102320.59;5070886;28;20064;-82
2022/01/01 10:52:12;;;;;;;0.95;0.95;;;;;;;15.28;66.91;102295.72;5071385;28;20415;-81
2022/01/01 10:54:46;;;;;;;0.30;0.30;;;;;;;15.25;67.32;102292.22;5071746;28;20025;-81
2022/01/01 10:57:13;;;;;;;0.20;0.20;;;;;;;15.31;67.06;102284.13;5071506;28;20036;-82
2022/01/01 10:59:39;;;;;;;0.20;0.20;;;;;;;15.30;67.00;102285.91;5070907;28;20028;-82
2022/01/01 11:02:07;;;;;;;0.43;0.43;;;;;;;15.31;66.99;102282.31;5071298;28;20054;-82
2022/01/01 11:04:34;;;;;;;0.70;0.70;;;;;;;15.37;66.61;102284.88;5071524;28;20037;-82
2022/01/01 11:07:01;;;;;;;0.10;0.10;;;;;;;15.44;66.47;102299.03;5071258;28;20060;-82
2022/01/01 11:09:29;;;;;;;0.65;0.65;;;;;;;15.41;66.63;102293.72;5071394;28;20032;-81
2022/01/01 11:12:02;;;;;;;0.95;0.95;;;;;;;15.44;66.59;102283.00;5070489;28;20473;-82
2022/01/01 11:14:31;;;;;;;0.30;0.30;;;;;;;15.47;66.47;102276.72;5071151;28;20103;-81
2022/01/01 11:16:59;;;;;;;0.10;0.10;;;;;;;15.47;66.47;102274.94;5070335;28;20043;-82
2022/01/01 11:19:26;;;;;;;0.52;0.52;;;;;;;15.60;66.46;102285.41;5070829;28;20039;-82
2022/01/01 11:21:53;;;;;;;0.30;0.30;;;;;;;15.73;66.09;102278.06;5071764;28;20029;-82
2022/01/01 11:24:21;;;;;;;1.77;0.75;;;;;;;15.85;66.07;102284.06;5071899;28;20025;-82
2022/01/01 11:26:49;;;;;;;3.85;0.90;;;;;;;15.85;65.61;102284.06;5071005;28;20510;-81